sensor_id;sensor_type;location;lat;lon;timestamp;P1;durP1;ratioP1;P2;durP2;ratioP2
44366;SDS011;30086;57.660;12.000;2023-11-19T00:01:31;2.88;;;2.17;;
44366;SDS011;30086;57.660;12.000;2023-11-19T00:10:53;2.97;;;2.10;;
44366;SDS011;30086;57.660;12.000;2023-11-19T00:16:42;4.35;;;2.47;;
44366;SDS011;30086;57.660;12.000;2023-11-19T00:19:52;4.22;;;2.55;;
44366;SDS011;30086;57.660;12.000;2023-11-19T00:22:44;3.50;;;2.53;;
44366;SDS011;30086;57.660;12.000;2023-11-19T00:25:53;3.60;;;2.28;;
44366;SDS011;30086;57.660;12.000;2023-11-19T00:28:27;3.97;;;2.00;;
44366;SDS011;30086;57.660;12.000;2023-11-19T00:34:04;4.05;;;2.63;;
44366;SDS011;30086;57.660;12.000;2023-11-19T00:37:11;4.03;;;2.25;;
44366;SDS011;30086;57.660;12.000;2023-11-19T00:39:42;4.13;;;2.70;;
44366;SDS011;30086;57.660;12.000;2023-11-19T00:42:14;2.90;;;1.90;;
44366;SDS011;30086;57.660;12.000;2023-11-19T00:45:03;2.60;;;2.00;;
44366;SDS011;30086;57.660;12.000;2023-11-19T00:47:49;3.08;;;2.00;;
44366;SDS011;30086;57.660;12.000;2023-11-19T00:50:36;4.00;;;2.10;;
44366;SDS011;30086;57.660;12.000;2023-11-19T00:53:31;3.30;;;2.15;;
44366;SDS011;30086;57.660;12.000;2023-11-19T00:56:10;3.97;;;2.45;;
44366;SDS011;30086;57.660;12.000;2023-11-19T00:58:55;3.25;;;2.15;;
44366;SDS011;30086;57.660;12.000;2023-11-19T01:01:47;3.40;;;2.17;;
44366;SDS011;30086;57.660;12.000;2023-11-19T01:04:41;5.00;;;2.33;;
44366;SDS011;30086;57.660;12.000;2023-11-19T01:07:11;3.40;;;2.20;;
44366;SDS011;30086;57.660;12.000;2023-11-19T01:10:09;5.43;;;2.30;;
44366;SDS011;30086;57.660;12.000;2023-11-19T01:12:57;3.17;;;2.25;;
44366;SDS011;30086;57.660;12.000;2023-11-19T01:15:55;2.92;;;1.90;;
44366;SDS011;30086;57.660;12.000;2023-11-19T01:19:02;5.30;;;2.53;;
44366;SDS011;30086;57.660;12.000;2023-11-19T01:21:43;3.08;;;2.42;;
44366;SDS011;30086;57.660;12.000;2023-11-19T01:24:39;4.80;;;2.72;;
44366;SDS011;30086;57.660;12.000;2023-11-19T01:27:29;3.13;;;2.20;;
44366;SDS011;30086;57.660;12.000;2023-11-19T01:29:55;3.75;;;2.22;;
44366;SDS011;30086;57.660;12.000;2023-11-19T01:32:34;3.78;;;1.90;;
44366;SDS011;30086;57.660;12.000;2023-11-19T01:35:15;3.38;;;2.22;;
44366;SDS011;30086;57.660;12.000;2023-11-19T01:38:03;4.13;;;2.50;;
44366;SDS011;30086;57.660;12.000;2023-11-19T01:40:37;2.78;;;2.17;;
44366;SDS011;30086;57.660;12.000;2023-11-19T01:43:35;2.85;;;1.98;;
44366;SDS011;30086;57.660;12.000;2023-11-19T01:46:04;3.55;;;2.40;;
44366;SDS011;30086;57.660;12.000;2023-11-19T01:49:09;2.63;;;1.95;;
44366;SDS011;30086;57.660;12.000;2023-11-19T01:55:09;4.25;;;2.20;;
44366;SDS011;30086;57.660;12.000;2023-11-19T01:57:42;2.65;;;2.00;;
44366;SDS011;30086;57.660;12.000;2023-11-19T02:03:11;3.33;;;2.00;;
44366;SDS011;30086;57.660;12.000;2023-11-19T02:05:37;2.97;;;1.88;;
44366;SDS011;30086;57.660;12.000;2023-11-19T02:08:05;2.60;;;1.75;;
44366;SDS011;30086;57.660;12.000;2023-11-19T02:10:56;2.90;;;2.13;;
44366;SDS011;30086;57.660;12.000;2023-11-19T02:13:46;2.70;;;1.80;;
44366;SDS011;30086;57.660;12.000;2023-11-19T02:16:37;3.53;;;2.25;;
44366;SDS011;30086;57.660;12.000;2023-11-19T02:19:29;3.13;;;2.05;;
44366;SDS011;30086;57.660;12.000;2023-11-19T02:22:00;2.75;;;1.95;;
44366;SDS011;30086;57.660;12.000;2023-11-19T02:25:11;2.40;;;2.03;;
44366;SDS011;30086;57.660;12.000;2023-11-19T02:28:00;3.30;;;1.73;;
44366;SDS011;30086;57.660;12.000;2023-11-19T02:30:29;3.30;;;2.17;;
44366;SDS011;30086;57.660;12.000;2023-11-19T02:33:01;2.85;;;1.75;;
44366;SDS011;30086;57.660;12.000;2023-11-19T02:36:11;2.22;;;1.63;;
44366;SDS011;30086;57.660;12.000;2023-11-19T02:39:15;6.35;;;2.08;;
44366;SDS011;30086;57.660;12.000;2023-11-19T02:42:23;3.15;;;1.92;;
44366;SDS011;30086;57.660;12.000;2023-11-19T02:45:10;2.35;;;1.67;;
44366;SDS011;30086;57.660;12.000;2023-11-19T02:47:41;4.43;;;1.88;;
44366;SDS011;30086;57.660;12.000;2023-11-19T02:50:48;2.50;;;1.70;;
44366;SDS011;30086;57.660;12.000;2023-11-19T02:53:53;4.07;;;1.88;;
44366;SDS011;30086;57.660;12.000;2023-11-19T02:56:36;2.92;;;1.60;;
44366;SDS011;30086;57.660;12.000;2023-11-19T02:59:26;3.40;;;1.90;;
44366;SDS011;30086;57.660;12.000;2023-11-19T03:01:54;2.35;;;1.65;;
44366;SDS011;30086;57.660;12.000;2023-11-19T03:06:55;2.13;;;1.77;;
44366;SDS011;30086;57.660;12.000;2023-11-19T03:09:34;3.10;;;1.90;;
44366;SDS011;30086;57.660;12.000;2023-11-19T03:12:22;2.08;;;1.65;;
44366;SDS011;30086;57.660;12.000;2023-11-19T03:15:06;2.50;;;1.70;;
44366;SDS011;30086;57.660;12.000;2023-11-19T03:17:52;2.63;;;1.65;;
44366;SDS011;30086;57.660;12.000;2023-11-19T03:20:38;2.38;;;1.77;;
44366;SDS011;30086;57.660;12.000;2023-11-19T03:23:10;2.72;;;2.17;;
44366;SDS011;30086;57.660;12.000;2023-11-19T03:26:05;2.60;;;1.95;;
44366;SDS011;30086;57.660;12.000;2023-11-19T03:31:47;3.42;;;1.70;;
44366;SDS011;30086;57.660;12.000;2023-11-19T03:37:26;3.10;;;1.92;;
44366;SDS011;30086;57.660;12.000;2023-11-19T03:40:43;3.85;;;1.80;;
44366;SDS011;30086;57.660;12.000;2023-11-19T03:43:51;4.40;;;2.45;;
44366;SDS011;30086;57.660;12.000;2023-11-19T03:46:42;2.72;;;1.98;;
44366;SDS011;30086;57.660;12.000;2023-11-19T03:49:57;2.85;;;2.00;;
44366;SDS011;30086;57.660;12.000;2023-11-19T03:52:49;2.38;;;1.42;;
44366;SDS011;30086;57.660;12.000;2023-11-19T03:55:36;3.03;;;1.95;;
44366;SDS011;30086;57.660;12.000;2023-11-19T03:58:21;3.35;;;2.15;;
44366;SDS011;30086;57.660;12.000;2023-11-19T04:01:12;2.08;;;1.75;;
44366;SDS011;30086;57.660;12.000;2023-11-19T04:03:59;3.03;;;2.03;;
44366;SDS011;30086;57.660;12.000;2023-11-19T04:06:39;2.83;;;1.90;;
44366;SDS011;30086;57.660;12.000;2023-11-19T04:09:34;3.92;;;2.20;;
44366;SDS011;30086;57.660;12.000;2023-11-19T04:12:06;3.55;;;2.15;;
44366;SDS011;30086;57.660;12.000;2023-11-19T04:14:37;2.40;;;1.75;;
44366;SDS011;30086;57.660;12.000;2023-11-19T04:17:49;4.03;;;2.22;;
44366;SDS011;30086;57.660;12.000;2023-11-19T04:20:56;2.78;;;2.15;;
44366;SDS011;30086;57.660;12.000;2023-11-19T04:23:28;2.75;;;1.98;;
44366;SDS011;30086;57.660;12.000;2023-11-19T04:25:56;2.85;;;2.10;;
44366;SDS011;30086;57.660;12.000;2023-11-19T04:28:23;3.30;;;2.10;;
44366;SDS011;30086;57.660;12.000;2023-11-19T04:30:57;2.50;;;1.92;;
44366;SDS011;30086;57.660;12.000;2023-11-19T04:33:56;3.13;;;1.98;;
44366;SDS011;30086;57.660;12.000;2023-11-19T04:39:12;3.08;;;1.92;;
44366;SDS011;30086;57.660;12.000;2023-11-19T04:42:03;3.63;;;2.05;;
44366;SDS011;30086;57.660;12.000;2023-11-19T04:44:33;3.42;;;1.80;;
44366;SDS011;30086;57.660;12.000;2023-11-19T04:47:29;3.42;;;1.50;;
44366;SDS011;30086;57.660;12.000;2023-11-19T04:50:16;5.03;;;1.80;;
44366;SDS011;30086;57.660;12.000;2023-11-19T04:55:56;2.90;;;2.00;;
44366;SDS011;30086;57.660;12.000;2023-11-19T04:58:55;3.00;;;1.85;;
44366;SDS011;30086;57.660;12.000;2023-11-19T05:01:38;3.00;;;2.10;;
44366;SDS011;30086;57.660;12.000;2023-11-19T05:04:24;5.15;;;2.33;;
44366;SDS011;30086;57.660;12.000;2023-11-19T05:06:55;5.40;;;2.40;;
44366;SDS011;30086;57.660;12.000;2023-11-19T05:09:46;3.13;;;2.05;;
44366;SDS011;30086;57.660;12.000;2023-11-19T05:12:47;3.45;;;2.28;;
44366;SDS011;30086;57.660;12.000;2023-11-19T05:15:59;4.28;;;2.22;;
44366;SDS011;30086;57.660;12.000;2023-11-19T05:19:12;5.07;;;2.20;;
44366;SDS011;30086;57.660;12.000;2023-11-19T05:21:50;5.30;;;2.60;;
44366;SDS011;30086;57.660;12.000;2023-11-19T05:24:37;2.63;;;1.95;;
44366;SDS011;30086;57.660;12.000;2023-11-19T05:30:21;2.88;;;2.22;;
44366;SDS011;30086;57.660;12.000;2023-11-19T05:32:49;5.20;;;1.95;;
44366;SDS011;30086;57.660;12.000;2023-11-19T05:35:26;2.40;;;1.80;;
44366;SDS011;30086;57.660;12.000;2023-11-19T05:38:13;3.15;;;2.20;;
44366;SDS011;30086;57.660;12.000;2023-11-19T05:44:01;3.00;;;1.85;;
44366;SDS011;30086;57.660;12.000;2023-11-19T05:46:52;3.08;;;1.98;;
44366;SDS011;30086;57.660;12.000;2023-11-19T05:52:48;2.70;;;1.80;;
44366;SDS011;30086;57.660;12.000;2023-11-19T05:55:51;2.90;;;1.85;;
44366;SDS011;30086;57.660;12.000;2023-11-19T05:59:08;5.55;;;2.28;;
44366;SDS011;30086;57.660;12.000;2023-11-19T06:02:28;2.17;;;1.75;;
44366;SDS011;30086;57.660;12.000;2023-11-19T06:05:24;2.80;;;1.83;;
44366;SDS011;30086;57.660;12.000;2023-11-19T06:08:17;3.13;;;1.80;;
44366;SDS011;30086;57.660;12.000;2023-11-19T06:17:05;3.92;;;1.65;;
44366;SDS011;30086;57.660;12.000;2023-11-19T06:20:15;2.70;;;1.67;;
44366;SDS011;30086;57.660;12.000;2023-11-19T06:23:16;3.22;;;2.08;;
44366;SDS011;30086;57.660;12.000;2023-11-19T06:25:47;2.58;;;1.77;;
44366;SDS011;30086;57.660;12.000;2023-11-19T06:28:13;3.63;;;2.03;;
44366;SDS011;30086;57.660;12.000;2023-11-19T06:31:01;4.28;;;1.92;;
44366;SDS011;30086;57.660;12.000;2023-11-19T06:33:45;4.97;;;2.50;;
44366;SDS011;30086;57.660;12.000;2023-11-19T06:36:47;2.20;;;1.75;;
44366;SDS011;30086;57.660;12.000;2023-11-19T06:39:15;3.85;;;2.45;;
44366;SDS011;30086;57.660;12.000;2023-11-19T06:42:38;3.47;;;2.00;;
44366;SDS011;30086;57.660;12.000;2023-11-19T06:45:58;2.53;;;1.92;;
44366;SDS011;30086;57.660;12.000;2023-11-19T06:49:06;2.45;;;1.80;;
44366;SDS011;30086;57.660;12.000;2023-11-19T06:51:51;3.75;;;1.92;;
44366;SDS011;30086;57.660;12.000;2023-11-19T06:55:05;3.45;;;1.90;;
44366;SDS011;30086;57.660;12.000;2023-11-19T06:58:15;3.28;;;2.20;;
44366;SDS011;30086;57.660;12.000;2023-11-19T07:01:01;5.00;;;2.00;;
44366;SDS011;30086;57.660;12.000;2023-11-19T07:03:55;2.50;;;1.75;;
44366;SDS011;30086;57.660;12.000;2023-11-19T07:06:25;3.75;;;2.33;;
44366;SDS011;30086;57.660;12.000;2023-11-19T07:08:53;3.72;;;2.25;;
44366;SDS011;30086;57.660;12.000;2023-11-19T07:11:47;3.58;;;2.30;;
44366;SDS011;30086;57.660;12.000;2023-11-19T07:14:23;3.38;;;2.08;;
44366;SDS011;30086;57.660;12.000;2023-11-19T07:17:12;5.22;;;2.42;;
44366;SDS011;30086;57.660;12.000;2023-11-19T07:26:32;3.28;;;2.50;;
44366;SDS011;30086;57.660;12.000;2023-11-19T07:29:34;3.75;;;2.28;;
44366;SDS011;30086;57.660;12.000;2023-11-19T07:32:10;4.15;;;2.60;;
44366;SDS011;30086;57.660;12.000;2023-11-19T07:34:39;2.88;;;2.30;;
44366;SDS011;30086;57.660;12.000;2023-11-19T07:37:06;5.55;;;3.05;;
44366;SDS011;30086;57.660;12.000;2023-11-19T07:40:07;3.15;;;2.10;;
44366;SDS011;30086;57.660;12.000;2023-11-19T07:42:39;3.17;;;2.45;;
44366;SDS011;30086;57.660;12.000;2023-11-19T07:45:09;3.75;;;2.25;;
44366;SDS011;30086;57.660;12.000;2023-11-19T07:47:45;4.97;;;2.70;;
44366;SDS011;30086;57.660;12.000;2023-11-19T07:50:11;3.42;;;2.78;;
44366;SDS011;30086;57.660;12.000;2023-11-19T07:52:47;3.17;;;2.38;;
44366;SDS011;30086;57.660;12.000;2023-11-19T07:55:14;4.22;;;2.85;;
44366;SDS011;30086;57.660;12.000;2023-11-19T07:57:41;4.18;;;2.60;;
44366;SDS011;30086;57.660;12.000;2023-11-19T08:00:28;4.28;;;2.78;;
44366;SDS011;30086;57.660;12.000;2023-11-19T08:03:03;3.60;;;2.50;;
44366;SDS011;30086;57.660;12.000;2023-11-19T08:05:50;3.92;;;2.67;;
44366;SDS011;30086;57.660;12.000;2023-11-19T08:08:23;3.55;;;2.15;;
44366;SDS011;30086;57.660;12.000;2023-11-19T08:10:57;3.10;;;2.43;;
44366;SDS011;30086;57.660;12.000;2023-11-19T08:13:27;3.60;;;2.33;;
44366;SDS011;30086;57.660;12.000;2023-11-19T08:16:07;6.80;;;2.88;;
44366;SDS011;30086;57.660;12.000;2023-11-19T08:18:42;4.53;;;2.70;;
44366;SDS011;30086;57.660;12.000;2023-11-19T08:21:47;3.92;;;2.40;;
44366;SDS011;30086;57.660;12.000;2023-11-19T08:24:40;4.32;;;3.25;;
44366;SDS011;30086;57.660;12.000;2023-11-19T08:27:29;3.22;;;2.30;;
44366;SDS011;30086;57.660;12.000;2023-11-19T08:29:55;4.13;;;2.30;;
44366;SDS011;30086;57.660;12.000;2023-11-19T08:32:23;3.70;;;2.30;;
44366;SDS011;30086;57.660;12.000;2023-11-19T08:34:58;4.05;;;2.42;;
44366;SDS011;30086;57.660;12.000;2023-11-19T08:37:35;3.58;;;2.50;;
44366;SDS011;30086;57.660;12.000;2023-11-19T08:40:09;4.25;;;2.80;;
44366;SDS011;30086;57.660;12.000;2023-11-19T08:42:46;3.90;;;2.60;;
44366;SDS011;30086;57.660;12.000;2023-11-19T08:45:17;3.17;;;2.38;;
44366;SDS011;30086;57.660;12.000;2023-11-19T08:50:55;6.55;;;2.95;;
44366;SDS011;30086;57.660;12.000;2023-11-19T08:53:29;4.68;;;2.47;;
44366;SDS011;30086;57.660;12.000;2023-11-19T08:56:06;3.60;;;2.63;;
44366;SDS011;30086;57.660;12.000;2023-11-19T08:58:32;4.25;;;2.58;;
44366;SDS011;30086;57.660;12.000;2023-11-19T09:00:58;6.03;;;2.63;;
44366;SDS011;30086;57.660;12.000;2023-11-19T09:03:53;4.35;;;2.80;;
44366;SDS011;30086;57.660;12.000;2023-11-19T09:06:41;4.55;;;2.58;;
44366;SDS011;30086;57.660;12.000;2023-11-19T09:09:29;5.75;;;2.80;;
44366;SDS011;30086;57.660;12.000;2023-11-19T09:11:58;7.68;;;3.78;;
44366;SDS011;30086;57.660;12.000;2023-11-19T09:15:12;7.45;;;3.20;;
44366;SDS011;30086;57.660;12.000;2023-11-19T09:18:01;5.35;;;2.70;;
44366;SDS011;30086;57.660;12.000;2023-11-19T09:20:50;5.85;;;3.35;;
44366;SDS011;30086;57.660;12.000;2023-11-19T09:23:16;6.85;;;2.70;;
44366;SDS011;30086;57.660;12.000;2023-11-19T09:25:43;4.70;;;3.25;;
44366;SDS011;30086;57.660;12.000;2023-11-19T09:28:53;4.38;;;2.80;;
44366;SDS011;30086;57.660;12.000;2023-11-19T09:32:00;3.35;;;2.88;;
44366;SDS011;30086;57.660;12.000;2023-11-19T09:34:39;4.05;;;2.72;;
44366;SDS011;30086;57.660;12.000;2023-11-19T09:37:27;3.78;;;2.40;;
44366;SDS011;30086;57.660;12.000;2023-11-19T09:43:19;4.32;;;2.70;;
44366;SDS011;30086;57.660;12.000;2023-11-19T09:46:15;3.75;;;2.95;;
44366;SDS011;30086;57.660;12.000;2023-11-19T09:52:17;4.38;;;2.97;;
44366;SDS011;30086;57.660;12.000;2023-11-19T09:54:58;4.78;;;3.15;;
44366;SDS011;30086;57.660;12.000;2023-11-19T10:07:49;5.10;;;3.35;;
44366;SDS011;30086;57.660;12.000;2023-11-19T10:10:38;3.80;;;2.95;;
44366;SDS011;30086;57.660;12.000;2023-11-19T10:15:52;4.80;;;3.28;;
44366;SDS011;30086;57.660;12.000;2023-11-19T10:18:23;4.15;;;3.13;;
44366;SDS011;30086;57.660;12.000;2023-11-19T10:21:08;4.18;;;2.60;;
44366;SDS011;30086;57.660;12.000;2023-11-19T10:23:55;6.00;;;3.28;;
44366;SDS011;30086;57.660;12.000;2023-11-19T10:26:57;4.10;;;2.90;;
44366;SDS011;30086;57.660;12.000;2023-11-19T10:29:55;4.25;;;3.13;;
44366;SDS011;30086;57.660;12.000;2023-11-19T10:32:41;5.53;;;3.05;;
44366;SDS011;30086;57.660;12.000;2023-11-19T10:35:10;6.40;;;3.00;;
44366;SDS011;30086;57.660;12.000;2023-11-19T10:37:58;5.15;;;3.20;;
44366;SDS011;30086;57.660;12.000;2023-11-19T10:40:46;5.00;;;3.45;;
44366;SDS011;30086;57.660;12.000;2023-11-19T10:43:44;5.00;;;3.20;;
44366;SDS011;30086;57.660;12.000;2023-11-19T10:46:22;3.92;;;3.22;;
44366;SDS011;30086;57.660;12.000;2023-11-19T10:49:41;5.32;;;3.28;;
44366;SDS011;30086;57.660;12.000;2023-11-19T10:52:31;5.53;;;2.92;;
44366;SDS011;30086;57.660;12.000;2023-11-19T10:58:58;5.55;;;2.80;;
44366;SDS011;30086;57.660;12.000;2023-11-19T11:02:21;5.03;;;3.03;;
44366;SDS011;30086;57.660;12.000;2023-11-19T11:08:03;5.68;;;3.05;;
44366;SDS011;30086;57.660;12.000;2023-11-19T11:14:03;6.15;;;3.50;;
44366;SDS011;30086;57.660;12.000;2023-11-19T11:16:50;5.05;;;3.20;;
44366;SDS011;30086;57.660;12.000;2023-11-19T11:20:10;5.15;;;3.72;;
44366;SDS011;30086;57.660;12.000;2023-11-19T11:59:58;6.35;;;4.10;;
44366;SDS011;30086;57.660;12.000;2023-11-19T12:06:12;7.03;;;4.57;;
44366;SDS011;30086;57.660;12.000;2023-11-19T12:12:40;7.72;;;4.68;;
44366;SDS011;30086;57.660;12.000;2023-11-19T12:18:41;6.72;;;3.83;;
44366;SDS011;30086;57.660;12.000;2023-11-19T12:24:54;7.32;;;3.70;;
44366;SDS011;30086;57.660;12.000;2023-11-19T12:28:00;6.60;;;3.90;;
44366;SDS011;30086;57.660;12.000;2023-11-19T12:37:03;7.95;;;4.03;;
44366;SDS011;30086;57.660;12.000;2023-11-19T12:40:23;5.78;;;4.20;;
44366;SDS011;30086;57.660;12.000;2023-11-19T12:43:28;5.78;;;3.90;;
44366;SDS011;30086;57.660;12.000;2023-11-19T12:46:17;7.13;;;4.53;;
44366;SDS011;30086;57.660;12.000;2023-11-19T12:48:47;5.63;;;3.28;;
44366;SDS011;30086;57.660;12.000;2023-11-19T12:54:36;6.53;;;3.92;;
44366;SDS011;30086;57.660;12.000;2023-11-19T12:57:36;6.28;;;4.00;;
44366;SDS011;30086;57.660;12.000;2023-11-19T13:00:05;7.07;;;4.15;;
44366;SDS011;30086;57.660;12.000;2023-11-19T13:02:45;6.47;;;3.38;;
44366;SDS011;30086;57.660;12.000;2023-11-19T13:05:52;6.07;;;3.78;;
44366;SDS011;30086;57.660;12.000;2023-11-19T13:08:27;6.22;;;3.45;;
44366;SDS011;30086;57.660;12.000;2023-11-19T13:11:37;4.45;;;3.13;;
44366;SDS011;30086;57.660;12.000;2023-11-19T13:14:36;4.88;;;3.25;;
44366;SDS011;30086;57.660;12.000;2023-11-19T13:17:32;10.18;;;3.20;;
44366;SDS011;30086;57.660;12.000;2023-11-19T13:20:44;8.38;;;4.45;;
44366;SDS011;30086;57.660;12.000;2023-11-19T13:23:13;7.78;;;3.67;;
44366;SDS011;30086;57.660;12.000;2023-11-19T13:26:01;5.45;;;3.53;;
44366;SDS011;30086;57.660;12.000;2023-11-19T13:28:28;6.38;;;3.38;;
44366;SDS011;30086;57.660;12.000;2023-11-19T13:31:01;5.10;;;3.03;;
44366;SDS011;30086;57.660;12.000;2023-11-19T13:33:27;6.03;;;3.30;;
44366;SDS011;30086;57.660;12.000;2023-11-19T13:35:55;5.47;;;3.83;;
44366;SDS011;30086;57.660;12.000;2023-11-19T13:38:38;7.30;;;3.58;;
44366;SDS011;30086;57.660;12.000;2023-11-19T13:41:23;4.53;;;2.97;;
44366;SDS011;30086;57.660;12.000;2023-11-19T13:44:09;5.35;;;3.17;;
44366;SDS011;30086;57.660;12.000;2023-11-19T13:46:56;4.10;;;3.30;;
44366;SDS011;30086;57.660;12.000;2023-11-19T13:49:44;5.05;;;3.33;;
44366;SDS011;30086;57.660;12.000;2023-11-19T13:52:37;5.18;;;3.38;;
44366;SDS011;30086;57.660;12.000;2023-11-19T13:55:24;6.50;;;3.40;;
44366;SDS011;30086;57.660;12.000;2023-11-19T13:57:56;7.07;;;3.42;;
44366;SDS011;30086;57.660;12.000;2023-11-19T14:00:29;4.75;;;3.30;;
44366;SDS011;30086;57.660;12.000;2023-11-19T14:02:55;8.10;;;3.47;;
44366;SDS011;30086;57.660;12.000;2023-11-19T14:05:25;4.45;;;3.03;;
44366;SDS011;30086;57.660;12.000;2023-11-19T14:07:54;6.07;;;3.30;;
44366;SDS011;30086;57.660;12.000;2023-11-19T14:10:23;4.63;;;2.70;;
44366;SDS011;30086;57.660;12.000;2023-11-19T14:13:32;9.25;;;3.63;;
44366;SDS011;30086;57.660;12.000;2023-11-19T14:16:10;7.68;;;3.10;;
44366;SDS011;30086;57.660;12.000;2023-11-19T14:18:38;6.60;;;3.15;;
44366;SDS011;30086;57.660;12.000;2023-11-19T14:21:06;7.53;;;3.70;;
44366;SDS011;30086;57.660;12.000;2023-11-19T14:23:32;6.93;;;3.40;;
44366;SDS011;30086;57.660;12.000;2023-11-19T14:26:00;6.03;;;3.28;;
44366;SDS011;30086;57.660;12.000;2023-11-19T14:28:36;5.90;;;3.17;;
44366;SDS011;30086;57.660;12.000;2023-11-19T14:31:28;6.60;;;3.47;;
44366;SDS011;30086;57.660;12.000;2023-11-19T14:33:56;6.88;;;3.35;;
44366;SDS011;30086;57.660;12.000;2023-11-19T14:36:25;9.23;;;3.10;;
44366;SDS011;30086;57.660;12.000;2023-11-19T14:39:15;4.63;;;3.20;;
44366;SDS011;30086;57.660;12.000;2023-11-19T14:41:43;4.85;;;3.20;;
44366;SDS011;30086;57.660;12.000;2023-11-19T14:49:40;4.93;;;2.58;;
44366;SDS011;30086;57.660;12.000;2023-11-19T14:52:06;4.68;;;3.63;;
44366;SDS011;30086;57.660;12.000;2023-11-19T14:54:35;6.82;;;2.92;;
44366;SDS011;30086;57.660;12.000;2023-11-19T14:57:47;6.00;;;3.20;;
44366;SDS011;30086;57.660;12.000;2023-11-19T15:00:15;7.68;;;3.42;;
44366;SDS011;30086;57.660;12.000;2023-11-19T15:02:43;5.80;;;2.80;;
44366;SDS011;30086;57.660;12.000;2023-11-19T15:05:09;5.70;;;2.90;;
44366;SDS011;30086;57.660;12.000;2023-11-19T15:07:37;6.35;;;2.92;;
44366;SDS011;30086;57.660;12.000;2023-11-19T15:10:22;6.90;;;2.88;;
44366;SDS011;30086;57.660;12.000;2023-11-19T15:13:11;8.70;;;2.80;;
44366;SDS011;30086;57.660;12.000;2023-11-19T15:15:37;5.82;;;3.13;;
44366;SDS011;30086;57.660;12.000;2023-11-19T15:18:04;6.15;;;3.13;;
44366;SDS011;30086;57.660;12.000;2023-11-19T15:20:52;4.82;;;2.75;;
44366;SDS011;30086;57.660;12.000;2023-11-19T15:23:54;4.55;;;3.00;;
44366;SDS011;30086;57.660;12.000;2023-11-19T15:26:46;5.40;;;3.00;;
44366;SDS011;30086;57.660;12.000;2023-11-19T15:32:29;4.63;;;2.42;;
44366;SDS011;30086;57.660;12.000;2023-11-19T15:35:12;8.18;;;3.15;;
44366;SDS011;30086;57.660;12.000;2023-11-19T15:38:01;7.07;;;3.35;;
44366;SDS011;30086;57.660;12.000;2023-11-19T15:40:55;4.65;;;2.80;;
44366;SDS011;30086;57.660;12.000;2023-11-19T15:43:35;6.40;;;3.35;;
44366;SDS011;30086;57.660;12.000;2023-11-19T15:46:08;6.38;;;2.83;;
44366;SDS011;30086;57.660;12.000;2023-11-19T15:48:35;5.43;;;2.90;;
44366;SDS011;30086;57.660;12.000;2023-11-19T15:51:01;7.00;;;2.97;;
44366;SDS011;30086;57.660;12.000;2023-11-19T15:53:36;5.57;;;3.05;;
44366;SDS011;30086;57.660;12.000;2023-11-19T15:56:04;3.40;;;2.70;;
44366;SDS011;30086;57.660;12.000;2023-11-19T15:58:31;7.43;;;3.13;;
44366;SDS011;30086;57.660;12.000;2023-11-19T16:00:59;7.30;;;2.53;;
44366;SDS011;30086;57.660;12.000;2023-11-19T16:03:35;3.63;;;2.95;;
44366;SDS011;30086;57.660;12.000;2023-11-19T16:06:02;5.07;;;2.75;;
44366;SDS011;30086;57.660;12.000;2023-11-19T16:08:28;4.18;;;2.75;;
44366;SDS011;30086;57.660;12.000;2023-11-19T16:10:55;3.55;;;2.50;;
44366;SDS011;30086;57.660;12.000;2023-11-19T16:13:23;6.28;;;2.90;;
44366;SDS011;30086;57.660;12.000;2023-11-19T16:15:53;5.68;;;2.75;;
44366;SDS011;30086;57.660;12.000;2023-11-19T16:18:59;4.50;;;3.05;;
44366;SDS011;30086;57.660;12.000;2023-11-19T16:30:30;8.80;;;3.92;;
44366;SDS011;30086;57.660;12.000;2023-11-19T16:33:28;6.35;;;3.50;;
44366;SDS011;30086;57.660;12.000;2023-11-19T16:36:46;10.63;;;4.18;;
44366;SDS011;30086;57.660;12.000;2023-11-19T16:39:49;6.43;;;2.58;;
44366;SDS011;30086;57.660;12.000;2023-11-19T16:42:26;6.45;;;3.40;;
44366;SDS011;30086;57.660;12.000;2023-11-19T16:45:32;5.35;;;3.00;;
44366;SDS011;30086;57.660;12.000;2023-11-19T16:56:56;4.22;;;2.58;;
44366;SDS011;30086;57.660;12.000;2023-11-19T17:03:06;6.15;;;3.17;;
44366;SDS011;30086;57.660;12.000;2023-11-19T17:05:54;4.72;;;3.00;;
44366;SDS011;30086;57.660;12.000;2023-11-19T17:08:58;9.52;;;3.95;;
44366;SDS011;30086;57.660;12.000;2023-11-19T17:11:58;4.47;;;3.40;;
44366;SDS011;30086;57.660;12.000;2023-11-19T17:14:57;6.38;;;3.45;;
44366;SDS011;30086;57.660;12.000;2023-11-19T17:20:58;7.43;;;3.10;;
44366;SDS011;30086;57.660;12.000;2023-11-19T17:23:44;7.68;;;3.50;;
44366;SDS011;30086;57.660;12.000;2023-11-19T17:26:26;4.78;;;3.17;;
44366;SDS011;30086;57.660;12.000;2023-11-19T17:29:17;4.75;;;3.03;;
44366;SDS011;30086;57.660;12.000;2023-11-19T17:31:48;5.75;;;3.13;;
44366;SDS011;30086;57.660;12.000;2023-11-19T17:34:37;5.00;;;3.03;;
44366;SDS011;30086;57.660;12.000;2023-11-19T17:37:05;9.48;;;4.13;;
44366;SDS011;30086;57.660;12.000;2023-11-19T17:39:32;6.28;;;3.17;;
44366;SDS011;30086;57.660;12.000;2023-11-19T17:42:18;5.97;;;3.25;;
44366;SDS011;30086;57.660;12.000;2023-11-19T17:44:52;5.78;;;3.17;;
44366;SDS011;30086;57.660;12.000;2023-11-19T17:47:53;7.20;;;3.20;;
44366;SDS011;30086;57.660;12.000;2023-11-19T17:50:41;5.85;;;3.28;;
44366;SDS011;30086;57.660;12.000;2023-11-19T17:53:48;6.90;;;3.72;;
44366;SDS011;30086;57.660;12.000;2023-11-19T17:56:26;7.00;;;3.28;;
44366;SDS011;30086;57.660;12.000;2023-11-19T17:58:53;4.85;;;3.30;;
44366;SDS011;30086;57.660;12.000;2023-11-19T18:01:52;6.70;;;3.60;;
44366;SDS011;30086;57.660;12.000;2023-11-19T18:07:20;9.05;;;3.30;;
44366;SDS011;30086;57.660;12.000;2023-11-19T18:10:09;7.38;;;3.35;;
44366;SDS011;30086;57.660;12.000;2023-11-19T18:12:37;12.10;;;3.50;;
44366;SDS011;30086;57.660;12.000;2023-11-19T18:18:00;5.15;;;3.10;;
44366;SDS011;30086;57.660;12.000;2023-11-19T18:20:55;6.60;;;2.80;;
44366;SDS011;30086;57.660;12.000;2023-11-19T18:23:22;5.78;;;3.17;;
44366;SDS011;30086;57.660;12.000;2023-11-19T18:25:55;5.75;;;3.08;;
44366;SDS011;30086;57.660;12.000;2023-11-19T18:29:03;6.70;;;3.45;;
44366;SDS011;30086;57.660;12.000;2023-11-19T18:32:09;3.45;;;2.72;;
44366;SDS011;30086;57.660;12.000;2023-11-19T18:34:43;7.18;;;3.03;;
44366;SDS011;30086;57.660;12.000;2023-11-19T18:37:21;6.90;;;3.20;;
44366;SDS011;30086;57.660;12.000;2023-11-19T18:40:08;5.18;;;3.13;;
44366;SDS011;30086;57.660;12.000;2023-11-19T18:42:38;6.40;;;3.28;;
44366;SDS011;30086;57.660;12.000;2023-11-19T18:45:07;6.10;;;2.70;;
44366;SDS011;30086;57.660;12.000;2023-11-19T18:47:33;5.28;;;3.40;;
44366;SDS011;30086;57.660;12.000;2023-11-19T18:49:59;6.25;;;3.00;;
44366;SDS011;30086;57.660;12.000;2023-11-19T18:52:27;4.25;;;2.90;;
44366;SDS011;30086;57.660;12.000;2023-11-19T18:54:54;4.03;;;2.88;;
44366;SDS011;30086;57.660;12.000;2023-11-19T18:57:20;5.25;;;2.80;;
44366;SDS011;30086;57.660;12.000;2023-11-19T18:59:46;5.70;;;3.17;;
44366;SDS011;30086;57.660;12.000;2023-11-19T19:02:12;6.68;;;3.33;;
44366;SDS011;30086;57.660;12.000;2023-11-19T19:04:47;5.10;;;3.20;;
44366;SDS011;30086;57.660;12.000;2023-11-19T19:07:18;6.05;;;2.97;;
44366;SDS011;30086;57.660;12.000;2023-11-19T19:09:46;5.80;;;3.17;;
44366;SDS011;30086;57.660;12.000;2023-11-19T19:12:18;6.30;;;2.72;;
44366;SDS011;30086;57.660;12.000;2023-11-19T19:14:44;3.90;;;2.50;;
44366;SDS011;30086;57.660;12.000;2023-11-19T19:17:10;5.22;;;2.83;;
44366;SDS011;30086;57.660;12.000;2023-11-19T19:19:37;5.38;;;3.03;;